createdAt,value
2023-02-25T00:02:25.599Z,88.43
2023-02-25T00:07:25.488Z,87.95
2023-02-25T00:12:25.424Z,85.86
2023-02-25T00:17:25.378Z,91.03
2023-02-25T00:22:25.281Z,90.45
2023-02-25T00:27:25.225Z,90.60
2023-02-25T00:32:25.463Z,89.94
2023-02-25T00:37:25.114Z,90.80
2023-02-25T00:42:25.000Z,91.49
2023-02-25T00:47:24.945Z,89.01
2023-02-25T00:52:24.971Z,90.62
2023-02-25T00:57:24.838Z,90.99
2023-02-25T01:02:24.812Z,89.44
2023-02-25T01:07:24.675Z,87.68
2023-02-25T01:12:24.602Z,87.62
2023-02-25T01:17:24.556Z,89.01
2023-02-25T01:22:24.479Z,90.31
2023-02-25T01:27:24.385Z,86.83
2023-02-25T01:32:24.497Z,88.51
2023-02-25T01:37:24.271Z,84.79
2023-02-25T01:42:24.264Z,86.76
2023-02-25T01:47:24.130Z,87.56
2023-02-25T01:52:24.084Z,87.13
2023-02-25T01:57:24.021Z,86.20
2023-02-25T02:02:24.075Z,88.06
2023-02-25T02:07:23.917Z,86.84
2023-02-25T02:12:23.829Z,87.02
2023-02-25T02:17:23.840Z,87.77
2023-02-25T02:22:23.750Z,85.87
2023-02-25T02:27:23.740Z,84.43
2023-02-25T02:32:23.709Z,85.19
2023-02-25T02:37:23.502Z,83.03
2023-02-25T02:42:23.482Z,82.51
2023-02-25T02:47:23.382Z,85.19
2023-02-25T02:52:23.293Z,82.65
2023-02-25T02:57:23.256Z,87.29
2023-02-25T03:02:23.206Z,84.51
2023-02-25T03:07:23.181Z,83.27
2023-02-25T03:12:23.035Z,85.52
2023-02-25T03:17:22.984Z,85.78
2023-02-25T03:22:22.881Z,85.47
2023-02-25T03:27:22.875Z,82.45
2023-02-25T03:32:22.816Z,85.06
2023-02-25T03:37:22.758Z,86.82
2023-02-25T03:42:22.707Z,86.26
2023-02-25T03:47:22.619Z,85.33
2023-02-25T03:52:22.548Z,84.72
2023-02-25T03:57:22.511Z,85.60
2023-02-25T04:02:22.405Z,86.16
2023-02-25T04:07:22.317Z,88.68
2023-02-25T04:12:22.268Z,89.07
2023-02-25T04:17:22.243Z,87.95
2023-02-25T04:22:22.241Z,90.95
2023-02-25T04:27:22.080Z,90.33
2023-02-25T04:32:22.355Z,93.16
2023-02-25T04:37:21.939Z,91.45
2023-02-25T04:42:21.884Z,90.72
2023-02-25T04:47:21.816Z,93.10
2023-02-25T04:52:21.907Z,91.93
2023-02-25T04:57:21.678Z,90.72
2023-02-25T05:02:21.617Z,92.28
2023-02-25T05:07:21.513Z,91.39
2023-02-25T05:12:21.470Z,92.43
2023-02-25T05:17:21.496Z,93.19
2023-02-25T05:22:21.367Z,93.29
2023-02-25T05:27:21.287Z,92.05
2023-02-25T05:32:21.221Z,92.20
2023-02-25T05:37:21.124Z,93.13
2023-02-25T05:42:21.135Z,93.54
2023-02-25T05:47:20.999Z,93.13
2023-02-25T05:52:20.937Z,92.78
2023-02-25T05:57:20.914Z,93.02
2023-02-25T06:02:20.917Z,91.99
2023-02-25T06:07:20.743Z,93.40
2023-02-25T06:12:20.655Z,93.35
2023-02-25T06:17:20.641Z,91.53
2023-02-25T06:22:20.651Z,91.12
2023-02-25T06:27:20.480Z,91.28
2023-02-25T06:32:20.523Z,91.57
2023-02-25T06:37:20.335Z,89.59
2023-02-25T06:42:20.300Z,87.46
2023-02-25T06:47:20.242Z,88.49
2023-02-25T06:52:20.220Z,87.66
2023-02-25T06:57:20.132Z,85.42
2023-02-25T07:02:20.219Z,87.49
2023-02-25T07:07:19.952Z,85.28
2023-02-25T07:12:20.111Z,86.65
2023-02-25T07:17:19.883Z,85.31
2023-02-25T07:22:19.853Z,84.42
2023-02-25T07:27:19.741Z,84.83
2023-02-25T07:32:19.784Z,86.86
2023-02-25T07:37:19.840Z,85.22
2023-02-25T07:42:19.616Z,85.78
2023-02-25T07:47:37.488Z,88.16
2023-02-25T07:52:19.363Z,85.99
2023-02-25T07:57:19.394Z,88.55
2023-02-25T08:02:19.349Z,89.34
2023-02-25T08:07:19.183Z,89.79
2023-02-25T08:12:19.151Z,92.18
2023-02-25T08:17:19.043Z,92.28
2023-02-25T08:22:19.114Z,90.08
2023-02-25T08:27:19.976Z,90.56
2023-02-25T08:32:18.959Z,89.94
2023-02-25T08:37:28.741Z,92.07
2023-02-25T08:42:18.900Z,91.64
2023-02-25T08:47:18.830Z,92.16
2023-02-25T08:52:18.737Z,92.98
2023-02-25T08:57:18.545Z,92.38
2023-02-25T09:02:18.476Z,89.40
2023-02-25T09:07:18.374Z,87.74
2023-02-25T09:12:18.363Z,86.34
2023-02-25T09:17:24.192Z,78.63
2023-02-25T09:22:18.315Z,83.61
2023-02-25T09:27:18.120Z,86.99
2023-02-25T09:32:18.264Z,87.59
2023-02-25T09:37:17.966Z,88.67
2023-02-25T09:42:17.917Z,89.75
2023-02-25T09:47:18.111Z,90.06
2023-02-25T09:52:17.879Z,90.58
2023-02-25T09:57:17.718Z,91.24
2023-02-25T10:02:17.807Z,91.20
2023-02-25T10:07:17.705Z,90.89
2023-02-25T10:12:20.012Z,90.62
2023-02-25T10:17:17.452Z,91.31
2023-02-25T10:22:17.569Z,90.79
2023-02-25T10:27:17.326Z,91.45
2023-02-25T10:32:17.591Z,92.57
2023-02-25T10:37:17.243Z,93.51
2023-02-25T10:42:17.196Z,92.99
2023-02-25T10:47:17.173Z,93.20
2023-02-25T10:52:17.117Z,94.86
2023-02-25T10:57:17.077Z,93.45
2023-02-25T11:02:17.034Z,93.62
2023-02-25T11:07:16.978Z,93.51
2023-02-25T11:12:16.859Z,93.47
2023-02-25T11:17:16.749Z,92.01
2023-02-25T11:22:16.644Z,91.95
2023-02-25T11:27:16.607Z,92.76
2023-02-25T11:32:16.622Z,91.27
2023-02-25T11:37:16.460Z,90.33
2023-02-25T11:42:16.410Z,89.13
2023-02-25T11:47:16.337Z,90.52
2023-02-25T11:52:16.298Z,91.10
2023-02-25T11:57:16.206Z,91.37
2023-02-25T12:02:16.408Z,91.33
2023-02-25T12:07:16.094Z,90.37
2023-02-25T12:12:16.061Z,90.41
2023-02-25T12:17:15.980Z,91.80
2023-02-25T12:22:16.468Z,92.88
2023-02-25T12:27:15.856Z,92.16
2023-02-25T12:32:15.800Z,92.78
2023-02-25T12:37:15.844Z,93.37
2023-02-25T12:42:15.753Z,92.90
2023-02-25T12:47:15.741Z,92.90
2023-02-25T12:52:17.371Z,91.08
2023-02-25T12:57:15.424Z,91.66
2023-02-25T13:02:15.366Z,91.14
2023-02-25T13:07:15.285Z,91.03
2023-02-25T13:12:15.252Z,91.72
2023-02-25T13:17:15.281Z,91.24
2023-02-25T13:22:15.060Z,92.36
2023-02-25T13:27:15.016Z,93.93
2023-02-25T13:32:15.016Z,94.18
2023-02-25T13:37:15.231Z,95.47
2023-02-25T13:42:14.810Z,96.20
2023-02-25T13:47:14.753Z,93.45
2023-02-25T13:52:14.695Z,91.22
2023-02-25T13:57:14.728Z,91.70
2023-02-25T14:02:15.471Z,91.66
2023-02-25T14:07:14.498Z,91.20
2023-02-25T14:12:14.418Z,91.28
2023-02-25T14:17:14.377Z,92.74
2023-02-25T14:22:14.294Z,90.45
2023-02-25T14:27:14.266Z,92.32
2023-02-25T14:32:14.184Z,91.20
2023-02-25T14:37:14.214Z,94.56
2023-02-25T14:42:14.404Z,96.16
2023-02-25T14:47:14.167Z,95.75
2023-02-25T14:52:14.021Z,94.92
2023-02-25T14:57:13.856Z,94.45
2023-02-25T15:02:13.783Z,94.04
2023-02-25T15:07:13.753Z,93.31
2023-02-25T15:12:13.630Z,93.05
2023-02-25T15:17:13.636Z,94.10
2023-02-25T15:22:13.516Z,93.33
2023-02-25T15:27:13.450Z,94.95
2023-02-25T15:32:13.412Z,94.47
2023-02-25T15:37:13.303Z,94.82
2023-02-25T15:42:13.262Z,94.14
2023-02-25T15:47:13.168Z,93.73
2023-02-25T15:52:13.150Z,93.56
2023-02-25T15:57:13.054Z,93.56
2023-02-25T16:02:13.020Z,92.62
2023-02-25T16:07:12.958Z,93.66
2023-02-25T16:12:12.927Z,93.14
2023-02-25T16:17:12.863Z,94.49
2023-02-25T16:22:12.800Z,93.87
2023-02-25T16:27:14.903Z,93.77
2023-02-25T16:32:12.829Z,94.75
2023-02-25T16:37:12.622Z,96.36
2023-02-25T16:42:12.467Z,96.98
2023-02-25T16:47:12.454Z,96.71
2023-02-25T16:52:12.417Z,96.15
2023-02-25T16:57:12.294Z,95.67
2023-02-25T17:02:12.230Z,99.99
2023-02-25T17:07:12.205Z,99.99
2023-02-25T17:12:12.163Z,98.20
2023-02-25T17:17:12.047Z,92.51
2023-02-25T17:22:12.015Z,90.91
2023-02-25T17:27:11.921Z,90.62
2023-02-25T17:32:11.932Z,88.75
2023-02-25T17:37:11.823Z,91.55
2023-02-25T17:42:11.699Z,88.48
2023-02-25T17:47:11.741Z,89.25
2023-02-25T17:52:11.542Z,87.76
2023-02-25T17:57:11.497Z,85.42
2023-02-25T18:02:11.478Z,87.68
2023-02-25T18:07:11.462Z,88.44
2023-02-25T18:12:11.329Z,91.02
2023-02-25T18:17:11.250Z,93.30
2023-02-25T18:22:11.188Z,92.16
2023-02-25T18:27:11.141Z,95.91
2023-02-25T18:32:12.805Z,95.02
2023-02-25T18:37:11.001Z,95.58
2023-02-25T18:42:10.923Z,96.62
2023-02-25T18:47:10.890Z,96.42
2023-02-25T18:52:11.112Z,96.77
2023-02-25T18:57:10.712Z,96.67
2023-02-25T19:02:10.759Z,96.36
2023-02-25T19:07:10.594Z,96.09
2023-02-25T19:12:10.651Z,95.46
2023-02-25T19:17:10.467Z,95.78
2023-02-25T19:22:10.453Z,95.88
2023-02-25T19:27:10.413Z,96.13
2023-02-25T19:32:10.358Z,96.71
2023-02-25T19:37:10.950Z,96.55
2023-02-25T19:42:10.195Z,96.86
2023-02-25T19:47:10.116Z,96.44
2023-02-25T19:52:10.752Z,96.07
2023-02-25T19:57:09.949Z,96.76
2023-02-25T20:02:09.976Z,96.44
2023-02-25T20:07:09.852Z,97.11
2023-02-25T20:12:09.864Z,97.70
2023-02-25T20:17:09.794Z,96.70
2023-02-25T20:22:09.732Z,97.01
2023-02-25T20:27:09.621Z,97.22
2023-02-25T20:32:09.648Z,97.32
2023-02-25T20:37:09.443Z,97.22
2023-02-25T20:42:09.450Z,97.43
2023-02-25T20:47:09.469Z,97.85
2023-02-25T20:52:09.329Z,98.16
2023-02-25T20:57:09.290Z,97.99
2023-02-25T21:02:09.216Z,98.10
2023-02-25T21:07:09.114Z,97.27
2023-02-25T21:12:09.225Z,97.05
2023-02-25T21:17:09.698Z,96.43
2023-02-25T21:22:08.918Z,96.53
2023-02-25T21:27:08.813Z,96.53
2023-02-25T21:32:09.431Z,96.74
2023-02-25T21:37:08.687Z,96.95
2023-02-25T21:42:08.635Z,97.41
2023-02-25T21:47:08.556Z,97.68
2023-02-25T21:52:08.591Z,97.37
2023-02-25T21:57:08.430Z,97.37
2023-02-25T22:02:08.401Z,96.95
2023-02-25T22:07:08.327Z,97.10
2023-02-25T22:12:08.312Z,97.89
2023-02-25T22:17:08.307Z,97.62
2023-02-25T22:22:08.258Z,97.68
2023-02-25T22:27:08.115Z,97.20
2023-02-25T22:32:08.084Z,97.72
2023-02-25T22:37:07.936Z,97.31
2023-02-25T22:42:07.864Z,97.72
2023-02-25T22:47:07.837Z,97.72
2023-02-25T22:52:07.772Z,97.62
2023-02-25T22:57:07.676Z,97.72
2023-02-25T23:02:07.926Z,98.04
2023-02-25T23:07:07.535Z,97.72
2023-02-25T23:12:07.531Z,97.62
2023-02-25T23:17:07.437Z,97.94
2023-02-25T23:22:07.395Z,97.52
2023-02-25T23:27:07.302Z,97.41
2023-02-25T23:32:07.374Z,97.41
2023-02-25T23:37:07.224Z,97.41
2023-02-25T23:42:07.094Z,97.62
2023-02-25T23:47:07.026Z,98.04
2023-02-25T23:52:06.985Z,97.31
2023-02-25T23:57:06.999Z,97.72
